Time;durP1;ratioP1;P1;durP2;ratioP2;P2;SDS_P1;SDS_P2;PMS_P1;PMS_P2;Temp;Humidity;BMP_temperature;BMP_pressure;BME280_temperature;BME280_humidity;BME280_pressure;Samples;Min_cycle;Max_cycle;Signal;HPM_P1;HPM_P2
2022/06/20 00:00:14;;;;;;;;;;;;;;;;;;5009747;28;123465;-67
2022/06/20 00:02:40;;;;;;;;;;;;;;;;;;5008968;28;133749;-67
2022/06/20 00:05:06;;;;;;;;;;;;;;;;;;5008902;27;119049;-68
2022/06/20 00:07:33;;;;;;;;;;;;;;;;;;5011240;28;135600;-67
2022/06/20 00:09:59;;;;;;;;;;;;;;;;;;4991123;28;123936;-67
2022/06/20 00:12:25;;;;;;;;;;;;;;;;;;4989118;28;126583;-67
2022/06/20 00:14:52;;;;;;;;;;;;;;;;;;4988077;28;135712;-68
2022/06/20 00:17:18;;;;;;;;;;;;;;;;;;4978081;28;107032;-68
2022/06/20 00:19:45;;;;;;;;;;;;;;;;;;4980777;28;126072;-67
2022/06/20 00:22:11;;;;;;;;;;;;;;;;;;4987726;28;137069;-67
2022/06/20 00:24:37;;;;;;;;;;;;;;;;;;4986461;28;118219;-68
2022/06/20 00:27:06;;;;;;;;;;;;;;;;;;4988271;28;135439;-67
2022/06/20 00:29:33;;;;;;;;;;;;;;;;;;4988619;28;109702;-67
2022/06/20 00:31:59;;;;;;;;;;;;;;;;;;4994514;28;106305;-67
2022/06/20 00:34:25;;;;;;;;;;;;;;;;;;4988591;28;136791;-68
2022/06/20 00:36:52;;;;;;;;;;;;;;;;;;4990004;28;107700;-67
2022/06/20 00:39:18;;;;;;;;;;;;;;;;;;4989875;28;127468;-68
2022/06/20 00:41:44;;;;;;;;;;;;;;;;;;4989196;28;130641;-67
2022/06/20 00:44:11;;;;;;;;;;;;;;;;;;4988632;28;117724;-67
2022/06/20 00:46:37;;;;;;;;;;;;;;;;;;4987381;28;137733;-67
2022/06/20 00:49:03;;;;;;;;;;;;;;;;;;4988794;28;135656;-67
2022/06/20 00:51:30;;;;;;;;;;;;;;;;;;4993294;28;106102;-67
2022/06/20 00:53:56;;;;;;;;;;;;;;;;;;4990014;28;117950;-68
2022/06/20 00:56:22;;;;;;;;;;;;;;;;;;4986684;28;119251;-67
2022/06/20 00:58:49;;;;;;;;;;;;;;;;;;4989689;28;126695;-67
2022/06/20 01:01:15;;;;;;;;;;;;;;;;;;4985538;28;133532;-68
2022/06/20 01:03:41;;;;;;;;;;;;;;;;;;4988392;28;117611;-68
2022/06/20 01:06:08;;;;;;;;;;;;;;;;;;4986747;28;137190;-67
2022/06/20 01:08:34;;;;;;;;;;;;;;;;;;4994667;27;135977;-68
2022/06/20 01:11:00;;;;;;;;;;;;;;;;;;4992469;28;110952;-67
2022/06/20 01:13:27;;;;;;;;;;;;;;;;;;5018873;27;137516;-67
2022/06/20 01:15:53;;;;;;;;;;;;;;;;;;5020264;27;118781;-67
2022/06/20 01:18:19;;;;;;;;;;;;;;;;;;5009781;27;123688;-67
2022/06/20 01:20:46;;;;;;;;;;;;;;;;;;5014083;27;119252;-67
2022/06/20 01:23:12;;;;;;;;;;;;;;;;;;5011920;27;106493;-67
2022/06/20 01:25:40;;;;;;;;;;;;;;;;;;5024866;27;107500;-67
2022/06/20 01:28:06;;;;;;;;;;;;;;;;;;5009188;27;133675;-67
2022/06/20 01:30:32;;;;;;;;;;;;;;;;;;5007464;27;116751;-67
2022/06/20 01:32:59;;;;;;;;;;;;;;;;;;5011903;27;107194;-67
2022/06/20 01:38:10;;;;;;;;;;;;;;;;;;5008579;27;121697;-67
2022/06/20 01:40:37;;;;;;;;;;;;;;;;;;5013983;27;108242;-67
2022/06/20 01:43:06;;;;;;;;;;;;;;;;;;5008777;27;119083;-67
2022/06/20 01:48:17;;;;;;;;;;;;;;;;;;5002599;27;127552;-66
2022/06/20 01:50:43;;;;;;;;;;;;;;;;;;4987840;28;110980;-66
2022/06/20 01:53:09;;;;;;;;;;;;;;;;;;5020189;27;122477;-66
2022/06/20 01:55:36;;;;;;;;;;;;;;;;;;5006922;28;137068;-68
2022/06/20 01:58:02;;;;;;;;;;;;;;;;;;5023864;27;119109;-67
2022/06/20 02:00:28;;;;;;;;;;;;;;;;;;5020241;27;138225;-67
2022/06/20 02:02:55;;;;;;;;;;;;;;;;;;5010198;27;116576;-67
2022/06/20 02:05:21;;;;;;;;;;;;;;;;;;5011022;27;135416;-67
2022/06/20 02:07:47;;;;;;;;;;;;;;;;;;5010853;28;131542;-67
2022/06/20 02:10:14;;;;;;;;;;;;;;;;;;5026865;27;118363;-67
2022/06/20 02:12:40;;;;;;;;;;;;;;;;;;5026084;27;106921;-67
2022/06/20 02:15:06;;;;;;;;;;;;;;;;;;5015362;27;106833;-67
2022/06/20 02:17:33;;;;;;;;;;;;;;;;;;5016239;27;118634;-67
2022/06/20 02:19:59;;;;;;;;;;;;;;;;;;5020046;27;136262;-67
2022/06/20 02:22:25;;;;;;;;;;;;;;;;;;5009951;27;106145;-67
2022/06/20 02:24:52;;;;;;;;;;;;;;;;;;5013966;27;133739;-67
2022/06/20 02:27:18;;;;;;;;;;;;;;;;;;5023010;27;137059;-67
2022/06/20 02:29:44;;;;;;;;;;;;;;;;;;5022261;27;118630;-68
2022/06/20 02:32:11;;;;;;;;;;;;;;;;;;5013506;27;124520;-67
2022/06/20 02:34:38;;;;;;;;;;;;;;;;;;5005797;27;135516;-67
2022/06/20 02:37:04;;;;;;;;;;;;;;;;;;5011650;28;117487;-67
2022/06/20 02:39:30;;;;;;;;;;;;;;;;;;5017514;27;112844;-67
2022/06/20 02:41:57;;;;;;;;;;;;;;;;;;5019344;27;138015;-67
2022/06/20 02:44:24;;;;;;;;;;;;;;;;;;5010561;27;118823;-67
2022/06/20 02:46:50;;;;;;;;;;;;;;;;;;5017552;27;128927;-67
2022/06/20 02:49:16;;;;;;;;;;;;;;;;;;5007562;27;108012;-66
2022/06/20 02:51:43;;;;;;;;;;;;;;;;;;5016436;27;132092;-67
2022/06/20 02:54:10;;;;;;;;;;;;;;;;;;5022108;27;106581;-66
2022/06/20 02:56:36;;;;;;;;;;;;;;;;;;5024731;27;106181;-66
2022/06/20 02:59:03;;;;;;;;;;;;;;;;;;5014581;27;136294;-66
2022/06/20 03:01:30;;;;;;;;;;;;;;;;;;5027751;27;137904;-66
2022/06/20 03:03:56;;;;;;;;;;;;;;;;;;5021383;27;107293;-66
2022/06/20 03:06:22;;;;;;;;;;;;;;;;;;5005435;27;137427;-66
2022/06/20 03:08:49;;;;;;;;;;;;;;;;;;5011678;27;110123;-66
2022/06/20 03:11:15;;;;;;;;;;;;;;;;;;5023057;27;131605;-66
2022/06/20 03:13:41;;;;;;;;;;;;;;;;;;5017620;27;125579;-67
2022/06/20 03:16:08;;;;;;;;;;;;;;;;;;5016359;27;106705;-66
2022/06/20 03:18:34;;;;;;;;;;;;;;;;;;5007413;27;107174;-66
2022/06/20 03:21:01;;;;;;;;;;;;;;;;;;5014562;27;107329;-67
2022/06/20 03:23:27;;;;;;;;;;;;;;;;;;5021650;27;120378;-67
2022/06/20 03:25:53;;;;;;;;;;;;;;;;;;5020072;27;135816;-68
2022/06/20 03:28:19;;;;;;;;;;;;;;;;;;5014585;27;118996;-67
2022/06/20 03:31:00;;;;;;;;;;;;;;;;;;5013063;27;135783;-67
2022/06/20 03:33:27;;;;;;;;;;;;;;;;;;5020216;27;136583;-67
2022/06/20 03:35:53;;;;;;;;;;;;;;;;;;5012876;27;108062;-68
2022/06/20 03:38:19;;;;;;;;;;;;;;;;;;5021142;27;137224;-67
2022/06/20 03:40:46;;;;;;;;;;;;;;;;;;5017101;27;108208;-67
2022/06/20 03:43:12;;;;;;;;;;;;;;;;;;5018741;27;107612;-67
2022/06/20 03:45:38;;;;;;;;;;;;;;;;;;5014494;27;116938;-67
2022/06/20 03:48:05;;;;;;;;;;;;;;;;;;5013693;27;106990;-67
2022/06/20 03:50:31;;;;;;;;;;;;;;;;;;5018675;27;137218;-67
2022/06/20 03:52:57;;;;;;;;;;;;;;;;;;5017860;27;136414;-67
2022/06/20 03:55:24;;;;;;;;;;;;;;;;;;4996656;28;106700;-67
2022/06/20 03:57:50;;;;;;;;;;;;;;;;;;5017590;27;128055;-67
2022/06/20 04:00:16;;;;;;;;;;;;;;;;;;5018428;27;107184;-66
2022/06/20 04:02:43;;;;;;;;;;;;;;;;;;5014542;27;106726;-66
2022/06/20 04:05:09;;;;;;;;;;;;;;;;;;5018006;27;128270;-66
2022/06/20 04:07:36;;;;;;;;;;;;;;;;;;5014542;27;136127;-66
2022/06/20 04:12:47;;;;;;;;;;;;;;;;;;5008315;28;115698;-66
2022/06/20 04:15:13;;;;;;;;;;;;;;;;;;5002597;28;111237;-67
2022/06/20 04:20:25;;;;;;;;;;;;;;;;;;5008907;28;123106;-66
2022/06/20 04:22:51;;;;;;;;;;;;;;;;;;5008219;28;120207;-67
2022/06/20 04:25:17;;;;;;;;;;;;;;;;;;5010302;28;136856;-67
2022/06/20 04:27:44;;;;;;;;;;;;;;;;;;5007828;27;136831;-67
2022/06/20 04:30:10;;;;;;;;;;;;;;;;;;5009299;27;117997;-67
2022/06/20 04:32:36;;;;;;;;;;;;;;;;;;5007995;28;128687;-66
2022/06/20 04:35:03;;;;;;;;;;;;;;;;;;5008857;27;117783;-67
2022/06/20 04:37:29;;;;;;;;;;;;;;;;;;5010544;27;106740;-67
2022/06/20 04:39:55;;;;;;;;;;;;;;;;;;5008278;28;125435;-67
2022/06/20 04:42:22;;;;;;;;;;;;;;;;;;5009454;28;119539;-67
2022/06/20 04:44:48;;;;;;;;;;;;;;;;;;5010632;28;115280;-67
2022/06/20 04:47:15;;;;;;;;;;;;;;;;;;4990054;28;132475;-67
2022/06/20 04:49:41;;;;;;;;;;;;;;;;;;5008162;28;118262;-67
2022/06/20 04:52:07;;;;;;;;;;;;;;;;;;5011636;28;130712;-68
2022/06/20 04:54:34;;;;;;;;;;;;;;;;;;5009308;28;116172;-67
2022/06/20 04:57:00;;;;;;;;;;;;;;;;;;4990500;28;135763;-67
2022/06/20 04:59:26;;;;;;;;;;;;;;;;;;5008292;27;118539;-66
2022/06/20 05:01:53;;;;;;;;;;;;;;;;;;5009579;28;114191;-66
2022/06/20 05:04:19;;;;;;;;;;;;;;;;;;5008743;28;123751;-67
2022/06/20 05:06:45;;;;;;;;;;;;;;;;;;5006865;27;131798;-67
2022/06/20 05:09:12;;;;;;;;;;;;;;;;;;5005385;27;118879;-67
2022/06/20 05:11:38;;;;;;;;;;;;;;;;;;5012755;28;106889;-67
2022/06/20 05:14:05;;;;;;;;;;;;;;;;;;5009831;28;106223;-67
2022/06/20 05:16:31;;;;;;;;;;;;;;;;;;5004389;28;137385;-67
2022/06/20 05:18:57;;;;;;;;;;;;;;;;;;5008930;28;135635;-66
2022/06/20 05:21:24;;;;;;;;;;;;;;;;;;5007477;28;119779;-67
2022/06/20 05:23:50;;;;;;;;;;;;;;;;;;5006600;27;136550;-66
2022/06/20 05:26:17;;;;;;;;;;;;;;;;;;4996532;28;135632;-67
2022/06/20 05:28:46;;;;;;;;;;;;;;;;;;5009045;28;106116;-67
2022/06/20 05:31:13;;;;;;;;;;;;;;;;;;5009769;28;135934;-67
2022/06/20 05:33:39;;;;;;;;;;;;;;;;;;5010053;27;130273;-66
2022/06/20 05:36:05;;;;;;;;;;;;;;;;;;5009187;28;132987;-66
2022/06/20 05:38:32;;;;;;;;;;;;;;;;;;5008578;27;126399;-66
2022/06/20 05:40:58;;;;;;;;;;;;;;;;;;5011930;27;108695;-66
2022/06/20 05:43:26;;;;;;;;;;;;;;;;;;5012101;28;128861;-67
2022/06/20 05:45:53;;;;;;;;;;;;;;;;;;5003589;28;130183;-66
2022/06/20 05:48:19;;;;;;;;;;;;;;;;;;5007146;27;106512;-66
2022/06/20 05:50:45;;;;;;;;;;;;;;;;;;5004827;27;137905;-66
2022/06/20 05:53:14;;;;;;;;;;;;;;;;;;5011551;28;136234;-72
2022/06/20 05:55:41;;;;;;;;;;;;;;;;;;5007367;28;111445;-68
2022/06/20 05:58:08;;;;;;;;;;;;;;;;;;5010351;27;135847;-67
2022/06/20 06:00:34;;;;;;;;;;;;;;;;;;5012295;28;116199;-67
2022/06/20 06:03:00;;;;;;;;;;;;;;;;;;5004251;28;106401;-67
2022/06/20 06:05:27;;;;;;;;;;;;;;;;;;5007163;27;117860;-67
2022/06/20 06:07:53;;;;;;;;;;;;;;;;;;4996871;28;122554;-67
2022/06/20 06:10:19;;;;;;;;;;;;;;;;;;5010075;28;137289;-67
2022/06/20 06:12:46;;;;;;;;;;;;;;;;;;5011533;28;107337;-67
2022/06/20 06:15:12;;;;;;;;;;;;;;;;;;5010287;28;115463;-67
2022/06/20 06:17:38;;;;;;;;;;;;;;;;;;5006398;28;106491;-67
2022/06/20 06:20:08;;;;;;;;;;;;;;;;;;5009884;28;123203;-67
2022/06/20 06:22:35;;;;;;;;;;;;;;;;;;5006750;28;134863;-67
2022/06/20 06:25:01;;;;;;;;;;;;;;;;;;5009862;27;109864;-67
2022/06/20 06:27:27;;;;;;;;;;;;;;;;;;5008675;28;121990;-67
2022/06/20 06:29:54;;;;;;;;;;;;;;;;;;4989934;28;116084;-67
2022/06/20 06:32:20;;;;;;;;;;;;;;;;;;5000313;28;135696;-67
2022/06/20 06:34:47;;;;;;;;;;;;;;;;;;5009074;28;117947;-67
2022/06/20 06:37:13;;;;;;;;;;;;;;;;;;4972181;28;134440;-67
2022/06/20 06:39:39;;;;;;;;;;;;;;;;;;5013428;28;125794;-67
2022/06/20 06:42:11;;;;;;;;;;;;;;;;;;5010349;28;109112;-67
2022/06/20 06:44:38;;;;;;;;;;;;;;;;;;4991687;28;109095;-68
2022/06/20 06:47:05;;;;;;;;;;;;;;;;;;5001798;28;121745;-69
2022/06/20 06:49:35;;;;;;;;;;;;;;;;;;5007052;28;135994;-67
2022/06/20 06:52:02;;;;;;;;;;;;;;;;;;4998082;28;137124;-67
2022/06/20 06:54:28;;;;;;;;;;;;;;;;;;4999772;28;110855;-67
2022/06/20 06:56:54;;;;;;;;;;;;;;;;;;5009049;28;135318;-67
2022/06/20 06:59:21;;;;;;;;;;;;;;;;;;4992333;28;117083;-66
2022/06/20 07:01:47;;;;;;;;;;;;;;;;;;5010197;27;107969;-66
2022/06/20 07:04:14;;;;;;;;;;;;;;;;;;5010312;28;136419;-66
2022/06/20 07:06:40;;;;;;;;;;;;;;;;;;5004223;27;115938;-67
2022/06/20 07:09:08;;;;;;;;;;;;;;;;;;5008934;28;135425;-66
2022/06/20 07:11:39;;;;;;;;;;;;;;;;;;5005769;27;134623;-66
2022/06/20 07:14:05;;;;;;;;;;;;;;;;;;5008588;28;109455;-67
2022/06/20 07:16:32;;;;;;;;;;;;;;;;;;5010403;28;110935;-67
2022/06/20 07:18:58;;;;;;;;;;;;;;;;;;4996687;27;118034;-67
2022/06/20 07:21:24;;;;;;;;;;;;;;;;;;5005296;27;106445;-67
2022/06/20 07:23:51;;;;;;;;;;;;;;;;;;5003830;28;119813;-66
2022/06/20 07:26:17;;;;;;;;;;;;;;;;;;5006081;28;107623;-66
2022/06/20 07:28:44;;;;;;;;;;;;;;;;;;5005069;27;109950;-66
2022/06/20 07:31:10;;;;;;;;;;;;;;;;;;5000672;27;110366;-67
2022/06/20 07:33:36;;;;;;;;;;;;;;;;;;4999521;27;123732;-66
2022/06/20 07:36:03;;;;;;;;;;;;;;;;;;5008615;28;119350;-66
2022/06/20 07:38:29;;;;;;;;;;;;;;;;;;5005056;27;129752;-66
2022/06/20 07:41:00;;;;;;;;;;;;;;;;;;5002020;27;118745;-66
2022/06/20 07:43:26;;;;;;;;;;;;;;;;;;4998685;27;129972;-67
2022/06/20 07:45:53;;;;;;;;;;;;;;;;;;5002542;27;111862;-67
2022/06/20 07:48:19;;;;;;;;;;;;;;;;;;4982809;28;135405;-66
2022/06/20 07:50:45;;;;;;;;;;;;;;;;;;5002854;28;110079;-66
2022/06/20 07:53:12;;;;;;;;;;;;;;;;;;5005627;28;124718;-67
2022/06/20 07:55:38;;;;;;;;;;;;;;;;;;5008598;28;124209;-68
2022/06/20 07:58:04;;;;;;;;;;;;;;;;;;5007043;28;138014;-67
2022/06/20 08:00:30;;;;;;;;;;;;;;;;;;5009395;28;114419;-67
2022/06/20 08:02:57;;;;;;;;;;;;;;;;;;5008303;28;124109;-67
2022/06/20 08:05:23;;;;;;;;;;;;;;;;;;5009235;27;134017;-68
2022/06/20 08:07:50;;;;;;;;;;;;;;;;;;5010873;28;106651;-67
2022/06/20 08:10:16;;;;;;;;;;;;;;;;;;5006906;28;136502;-68
2022/06/20 08:12:52;;;;;;;;;;;;;;;;;;5001764;28;106616;-67
2022/06/20 08:15:18;;;;;;;;;;;;;;;;;;5004684;27;120937;-67
2022/06/20 08:17:44;;;;;;;;;;;;;;;;;;5007183;27;107404;-68
2022/06/20 08:20:11;;;;;;;;;;;;;;;;;;4999412;28;118823;-68
2022/06/20 08:22:37;;;;;;;;;;;;;;;;;;5008479;28;115426;-67
2022/06/20 08:25:03;;;;;;;;;;;;;;;;;;5006005;28;137281;-67
2022/06/20 08:27:29;;;;;;;;;;;;;;;;;;5010731;28;124087;-67
2022/06/20 08:29:56;;;;;;;;;;;;;;;;;;5006321;28;126985;-67
2022/06/20 08:32:22;;;;;;;;;;;;;;;;;;5006968;27;106257;-67
2022/06/20 08:34:49;;;;;;;;;;;;;;;;;;5007707;28;107150;-67
2022/06/20 08:37:15;;;;;;;;;;;;;;;;;;5003279;28;137250;-68
2022/06/20 08:39:41;;;;;;;;;;;;;;;;;;4997842;28;123134;-68
2022/06/20 08:42:07;;;;;;;;;;;;;;;;;;5005228;28;129031;-68
2022/06/20 08:44:36;;;;;;;;;;;;;;;;;;5000593;27;116731;-68
2022/06/20 08:47:02;;;;;;;;;;;;;;;;;;5002439;27;106440;-71
2022/06/20 08:49:29;;;;;;;;;;;;;;;;;;4992196;27;106697;-68
2022/06/20 08:52:07;;;;;;;;;;;;;;;;;;5007131;27;106806;-69
2022/06/20 08:54:34;;;;;;;;;;;;;;;;;;5004115;27;108318;-68
2022/06/20 08:57:00;;;;;;;;;;;;;;;;;;5003160;28;131402;-69
2022/06/20 08:59:27;;;;;;;;;;;;;;;;;;4990932;28;106727;-68
2022/06/20 09:01:53;;;;;;;;;;;;;;;;;;4999647;27;124407;-67
2022/06/20 09:04:19;;;;;;;;;;;;;;;;;;5001505;27;115116;-68
2022/06/20 09:06:46;;;;;;;;;;;;;;;;;;5000577;27;106989;-69
2022/06/20 09:09:13;;;;;;;;;;;;;;;;;;5008402;28;117148;-69
2022/06/20 09:11:39;;;;;;;;;;;;;;;;;;5020300;27;106421;-69
2022/06/20 09:14:05;;;;;;;;;;;;;;;;;;4995162;28;126360;-68
2022/06/20 09:16:32;;;;;;;;;;;;;;;;;;5006607;28;123581;-68
2022/06/20 09:18:58;;;;;;;;;;;;;;;;;;5006130;28;110054;-69
2022/06/20 09:21:24;;;;;;;;;;;;;;;;;;4997214;28;137719;-68
2022/06/20 09:23:51;;;;;;;;;;;;;;;;;;5001021;28;122076;-68
2022/06/20 09:26:17;;;;;;;;;;;;;;;;;;5007471;28;114494;-68
2022/06/20 09:28:45;;;;;;;;;;;;;;;;;;5007187;27;107288;-68
2022/06/20 09:31:11;;;;;;;;;;;;;;;;;;5009933;28;137228;-68
2022/06/20 09:33:38;;;;;;;;;;;;;;;;;;5005948;28;126536;-68
2022/06/20 09:36:05;;;;;;;;;;;;;;;;;;5006763;28;134262;-67
2022/06/20 09:38:31;;;;;;;;;;;;;;;;;;4999663;28;113497;-67
2022/06/20 09:40:57;;;;;;;;;;;;;;;;;;5005191;27;106820;-70
2022/06/20 09:43:27;;;;;;;;;;;;;;;;;;5002444;27;138226;-69
2022/06/20 09:45:53;;;;;;;;;;;;;;;;;;5012566;27;107071;-70
2022/06/20 09:48:19;;;;;;;;;;;;;;;;;;4997631;27;106862;-68
2022/06/20 09:50:46;;;;;;;;;;;;;;;;;;5004832;28;106801;-67
2022/06/20 09:53:12;;;;;;;;;;;;;;;;;;5009213;28;118381;-68
2022/06/20 09:55:38;;;;;;;;;;;;;;;;;;5005854;28;138619;-68
2022/06/20 09:58:05;;;;;;;;;;;;;;;;;;5001230;28;113472;-72
2022/06/20 10:00:31;;;;;;;;;;;;;;;;;;4998689;28;118399;-67
2022/06/20 10:02:58;;;;;;;;;;;;;;;;;;5000584;27;123950;-68
2022/06/20 10:05:24;;;;;;;;;;;;;;;;;;5000268;27;123234;-68
2022/06/20 10:07:50;;;;;;;;;;;;;;;;;;5006248;27;121002;-68
2022/06/20 10:10:16;;;;;;;;;;;;;;;;;;5006075;27;137275;-68
2022/06/20 10:12:43;;;;;;;;;;;;;;;;;;5010781;27;106157;-64
2022/06/20 10:15:09;;;;;;;;;;;;;;;;;;5009496;27;126397;-67
2022/06/20 10:17:35;;;;;;;;;;;;;;;;;;5001756;27;109379;-68
2022/06/20 10:20:02;;;;;;;;;;;;;;;;;;5001114;27;122733;-68
2022/06/20 10:22:28;;;;;;;;;;;;;;;;;;4986145;28;135023;-66
2022/06/20 10:24:54;;;;;;;;;;;;;;;;;;4999563;27;107905;-67
2022/06/20 10:27:34;;;;;;;;;;;;;;;;;;5004074;28;111607;-66
2022/06/20 10:30:01;;;;;;;;;;;;;;;;;;5004646;27;138115;-67
2022/06/20 10:32:27;;;;;;;;;;;;;;;;;;4998456;28;123818;-70
2022/06/20 10:34:54;;;;;;;;;;;;;;;;;;5002892;27;131192;-65
2022/06/20 10:37:20;;;;;;;;;;;;;;;;;;5005769;28;126052;-66
2022/06/20 10:39:46;;;;;;;;;;;;;;;;;;5002875;27;124086;-66
2022/06/20 10:42:12;;;;;;;;;;;;;;;;;;5003043;28;115016;-65
2022/06/20 10:44:39;;;;;;;;;;;;;;;;;;5002787;27;107839;-65
2022/06/20 10:47:10;;;;;;;;;;;;;;;;;;5000231;28;127624;-65
2022/06/20 10:49:36;;;;;;;;;;;;;;;;;;5008211;27;137068;-65
2022/06/20 10:52:03;;;;;;;;;;;;;;;;;;5012737;27;123342;-65
2022/06/20 10:54:29;;;;;;;;;;;;;;;;;;5009224;27;131530;-65
2022/06/20 10:56:55;;;;;;;;;;;;;;;;;;5006415;28;130600;-65
2022/06/20 10:59:21;;;;;;;;;;;;;;;;;;5014644;27;119100;-65
2022/06/20 11:01:48;;;;;;;;;;;;;;;;;;5005858;28;107444;-65
2022/06/20 11:04:15;;;;;;;;;;;;;;;;;;5004328;28;123352;-65
2022/06/20 11:06:42;;;;;;;;;;;;;;;;;;5007536;28;120977;-65
2022/06/20 11:09:08;;;;;;;;;;;;;;;;;;5004859;28;136344;-65
2022/06/20 11:11:34;;;;;;;;;;;;;;;;;;5009874;28;107223;-65
2022/06/20 11:14:01;;;;;;;;;;;;;;;;;;5001398;27;137903;-64
2022/06/20 11:16:27;;;;;;;;;;;;;;;;;;4997313;27;115151;-64
2022/06/20 11:18:53;;;;;;;;;;;;;;;;;;5005205;28;107286;-64
2022/06/20 11:21:20;;;;;;;;;;;;;;;;;;4999835;27;138279;-63
2022/06/20 11:23:46;;;;;;;;;;;;;;;;;;5000709;28;106487;-63
2022/06/20 11:26:13;;;;;;;;;;;;;;;;;;4999295;28;137540;-64
2022/06/20 11:28:39;;;;;;;;;;;;;;;;;;4999848;28;138876;-64
2022/06/20 11:31:05;;;;;;;;;;;;;;;;;;5003885;28;123422;-64
2022/06/20 11:36:17;;;;;;;;;;;;;;;;;;4997414;28;115119;-63
2022/06/20 11:38:44;;;;;;;;;;;;;;;;;;5002562;28;121860;-64
2022/06/20 11:41:10;;;;;;;;;;;;;;;;;;5005128;28;118744;-64
2022/06/20 11:43:36;;;;;;;;;;;;;;;;;;4999993;27;109664;-65
2022/06/20 11:46:03;;;;;;;;;;;;;;;;;;4997863;28;137281;-65
2022/06/20 11:48:29;;;;;;;;;;;;;;;;;;5003082;28;131359;-65
2022/06/20 11:50:55;;;;;;;;;;;;;;;;;;5007053;28;118541;-64
2022/06/20 11:53:22;;;;;;;;;;;;;;;;;;5008234;28;135383;-65
2022/06/20 11:55:48;;;;;;;;;;;;;;;;;;5003120;28;119051;-65
2022/06/20 11:58:15;;;;;;;;;;;;;;;;;;5004080;28;120468;-65
2022/06/20 12:00:42;;;;;;;;;;;;;;;;;;5004361;28;113827;-65
2022/06/20 12:03:08;;;;;;;;;;;;;;;;;;5009627;28;107540;-64
2022/06/20 12:05:34;;;;;;;;;;;;;;;;;;5012110;27;134797;-64
2022/06/20 12:08:01;;;;;;;;;;;;;;;;;;5007976;27;124657;-64
2022/06/20 12:10:27;;;;;;;;;;;;;;;;;;5006373;27;115408;-65
2022/06/20 12:12:53;;;;;;;;;;;;;;;;;;5005308;27;124085;-64
2022/06/20 12:15:20;;;;;;;;;;;;;;;;;;4989283;28;126920;-65
2022/06/20 12:17:46;;;;;;;;;;;;;;;;;;5010908;27;106260;-64
2022/06/20 12:25:43;;;;;;;;;;;;;;;;;;5005537;28;118740;-64
2022/06/20 12:28:09;;;;;;;;;;;;;;;;;;5009235;27;132551;-64
2022/06/20 12:30:36;;;;;;;;;;;;;;;;;;5004646;27;107810;-64
2022/06/20 12:33:04;;;;;;;;;;;;;;;;;;5007483;27;129301;-64
2022/06/20 12:35:31;;;;;;;;;;;;;;;;;;4990512;28;133930;-64
2022/06/20 12:37:57;;;;;;;;;;;;;;;;;;5006443;27;119657;-65
2022/06/20 12:40:24;;;;;;;;;;;;;;;;;;5008929;27;128605;-65
2022/06/20 12:42:50;;;;;;;;;;;;;;;;;;4993151;27;137607;-64
2022/06/20 12:45:16;;;;;;;;;;;;;;;;;;5011755;27;123885;-65
2022/06/20 12:47:43;;;;;;;;;;;;;;;;;;5009009;27;115412;-66
2022/06/20 12:50:09;;;;;;;;;;;;;;;;;;5005905;27;107601;-66
2022/06/20 12:52:35;;;;;;;;;;;;;;;;;;5005194;27;134455;-66
2022/06/20 12:55:02;;;;;;;;;;;;;;;;;;5012596;27;136892;-66
2022/06/20 12:57:49;;;;;;;;;;;;;;;;;;5003548;27;106555;-66
2022/06/20 13:00:15;;;;;;;;;;;;;;;;;;4985547;28;124761;-66
2022/06/20 13:02:42;;;;;;;;;;;;;;;;;;5016838;27;138146;-66
2022/06/20 13:05:08;;;;;;;;;;;;;;;;;;5001986;27;121766;-67
2022/06/20 13:07:34;;;;;;;;;;;;;;;;;;5007731;28;122266;-66
2022/06/20 13:10:02;;;;;;;;;;;;;;;;;;5011444;27;127153;-67
2022/06/20 13:12:29;;;;;;;;;;;;;;;;;;5007528;27;137971;-65
2022/06/20 13:14:56;;;;;;;;;;;;;;;;;;5010353;27;132062;-65
2022/06/20 13:17:23;;;;;;;;;;;;;;;;;;5003396;28;106812;-66
2022/06/20 13:19:49;;;;;;;;;;;;;;;;;;5013498;27;137532;-66
2022/06/20 13:22:16;;;;;;;;;;;;;;;;;;5009469;27;126807;-66
2022/06/20 13:24:42;;;;;;;;;;;;;;;;;;5017121;27;120783;-68
2022/06/20 13:27:08;;;;;;;;;;;;;;;;;;5011488;27;137509;-66
2022/06/20 13:29:35;;;;;;;;;;;;;;;;;;5001046;27;137189;-66
2022/06/20 13:32:01;;;;;;;;;;;;;;;;;;5009491;27;133585;-66
2022/06/20 13:34:27;;;;;;;;;;;;;;;;;;4990112;27;127495;-66
2022/06/20 13:36:54;;;;;;;;;;;;;;;;;;5008523;27;106681;-66
2022/06/20 13:39:20;;;;;;;;;;;;;;;;;;5006967;27;134927;-66
2022/06/20 13:41:47;;;;;;;;;;;;;;;;;;5010582;27;130639;-66
2022/06/20 13:44:13;;;;;;;;;;;;;;;;;;5005604;27;117584;-66
2022/06/20 13:46:39;;;;;;;;;;;;;;;;;;5000405;27;123672;-66
2022/06/20 13:49:06;;;;;;;;;;;;;;;;;;5014113;27;106583;-66
2022/06/20 13:51:41;;;;;;;;;;;;;;;;;;5018726;27;120047;-66
2022/06/20 13:54:07;;;;;;;;;;;;;;;;;;5016397;27;138073;-66
2022/06/20 13:56:34;;;;;;;;;;;;;;;;;;4999737;27;117306;-66
2022/06/20 13:59:00;;;;;;;;;;;;;;;;;;5004021;28;117095;-69
2022/06/20 14:01:26;;;;;;;;;;;;;;;;;;5001591;27;121725;-66
2022/06/20 14:03:53;;;;;;;;;;;;;;;;;;5005880;27;121775;-66
2022/06/20 14:06:19;;;;;;;;;;;;;;;;;;5000126;27;119156;-66
2022/06/20 14:08:45;;;;;;;;;;;;;;;;;;5013310;27;106903;-66
2022/06/20 14:11:12;;;;;;;;;;;;;;;;;;5002750;27;124395;-65
2022/06/20 14:13:38;;;;;;;;;;;;;;;;;;5014773;27;120843;-65
2022/06/20 14:16:04;;;;;;;;;;;;;;;;;;5009401;27;106820;-65
2022/06/20 14:18:31;;;;;;;;;;;;;;;;;;5002871;27;136496;-65
2022/06/20 14:20:57;;;;;;;;;;;;;;;;;;5013905;27;129296;-65
2022/06/20 14:23:23;;;;;;;;;;;;;;;;;;5009025;27;111012;-66
2022/06/20 14:25:51;;;;;;;;;;;;;;;;;;5007204;27;133951;-66
2022/06/20 14:28:17;;;;;;;;;;;;;;;;;;5007410;27;137240;-65
2022/06/20 14:30:44;;;;;;;;;;;;;;;;;;5014022;27;118445;-64
2022/06/20 14:33:10;;;;;;;;;;;;;;;;;;4999010;27;136515;-65
2022/06/20 14:35:41;;;;;;;;;;;;;;;;;;5008488;28;137917;-65
2022/06/20 14:38:07;;;;;;;;;;;;;;;;;;5005735;27;136970;-66
2022/06/20 14:40:33;;;;;;;;;;;;;;;;;;5004435;28;136951;-65
2022/06/20 14:43:00;;;;;;;;;;;;;;;;;;5001442;28;121304;-66
2022/06/20 14:45:27;;;;;;;;;;;;;;;;;;5000679;28;111235;-67
2022/06/20 14:47:53;;;;;;;;;;;;;;;;;;5009018;28;107552;-65
2022/06/20 14:50:19;;;;;;;;;;;;;;;;;;5005011;27;108413;-64
2022/06/20 14:52:46;;;;;;;;;;;;;;;;;;4988127;28;133050;-64
2022/06/20 14:55:12;;;;;;;;;;;;;;;;;;4995296;28;134490;-64
2022/06/20 14:57:38;;;;;;;;;;;;;;;;;;5008061;27;122016;-65
2022/06/20 15:00:05;;;;;;;;;;;;;;;;;;5004259;28;107249;-64
2022/06/20 15:02:31;;;;;;;;;;;;;;;;;;5003924;28;115523;-65
2022/06/20 15:04:57;;;;;;;;;;;;;;;;;;4998103;28;117835;-65
2022/06/20 15:07:24;;;;;;;;;;;;;;;;;;5002023;27;137984;-64
2022/06/20 15:09:50;;;;;;;;;;;;;;;;;;5006358;27;109233;-65
2022/06/20 15:12:16;;;;;;;;;;;;;;;;;;5006703;28;111967;-65
2022/06/20 15:14:43;;;;;;;;;;;;;;;;;;4996445;28;123514;-65
2022/06/20 15:17:09;;;;;;;;;;;;;;;;;;5008589;28;113247;-63
2022/06/20 15:19:36;;;;;;;;;;;;;;;;;;5012307;27;133331;-64
2022/06/20 15:22:02;;;;;;;;;;;;;;;;;;5008700;27;107401;-65
2022/06/20 15:24:28;;;;;;;;;;;;;;;;;;5006125;27;137328;-63
2022/06/20 15:26:55;;;;;;;;;;;;;;;;;;4987220;28;136655;-64
2022/06/20 15:29:22;;;;;;;;;;;;;;;;;;5006893;28;106736;-65
2022/06/20 15:31:48;;;;;;;;;;;;;;;;;;5001911;27;136803;-64
2022/06/20 15:34:14;;;;;;;;;;;;;;;;;;5007478;28;136241;-63
2022/06/20 15:36:41;;;;;;;;;;;;;;;;;;4999336;28;118338;-66
2022/06/20 15:39:07;;;;;;;;;;;;;;;;;;5010470;28;118304;-64
2022/06/20 15:41:34;;;;;;;;;;;;;;;;;;5008825;27;113856;-64
2022/06/20 15:44:00;;;;;;;;;;;;;;;;;;5002467;28;123968;-63
2022/06/20 15:46:26;;;;;;;;;;;;;;;;;;5004125;28;129058;-65
2022/06/20 15:48:53;;;;;;;;;;;;;;;;;;5001926;28;118936;-66
2022/06/20 15:51:19;;;;;;;;;;;;;;;;;;4995531;28;122010;-65
2022/06/20 15:53:45;;;;;;;;;;;;;;;;;;5007387;28;107696;-66
2022/06/20 15:56:12;;;;;;;;;;;;;;;;;;5002668;28;106928;-64
2022/06/20 15:58:38;;;;;;;;;;;;;;;;;;5002184;27;122291;-64
2022/06/20 16:01:04;;;;;;;;;;;;;;;;;;4988493;28;135657;-66
2022/06/20 16:03:31;;;;;;;;;;;;;;;;;;5004077;28;123866;-65
2022/06/20 16:05:57;;;;;;;;;;;;;;;;;;5008266;28;136589;-64
2022/06/20 16:08:23;;;;;;;;;;;;;;;;;;4989843;28;106600;-64
2022/06/20 16:10:50;;;;;;;;;;;;;;;;;;5004155;27;137517;-64
2022/06/20 16:13:16;;;;;;;;;;;;;;;;;;5006007;28;127642;-64
2022/06/20 16:15:43;;;;;;;;;;;;;;;;;;5004872;27;122471;-64
2022/06/20 16:18:09;;;;;;;;;;;;;;;;;;5006543;28;123340;-64
2022/06/20 16:20:36;;;;;;;;;;;;;;;;;;5006159;27;108219;-64
2022/06/20 16:23:02;;;;;;;;;;;;;;;;;;4994508;28;112867;-63
2022/06/20 16:25:29;;;;;;;;;;;;;;;;;;5005620;28;133275;-64
2022/06/20 16:27:55;;;;;;;;;;;;;;;;;;4999560;27;111886;-64
2022/06/20 16:30:22;;;;;;;;;;;;;;;;;;5002700;27;117226;-64
2022/06/20 16:32:48;;;;;;;;;;;;;;;;;;5005812;28;129558;-67
2022/06/20 16:35:15;;;;;;;;;;;;;;;;;;5008089;28;114108;-64
2022/06/20 16:37:41;;;;;;;;;;;;;;;;;;5007731;28;112965;-64
2022/06/20 16:40:08;;;;;;;;;;;;;;;;;;4997194;28;107820;-64
2022/06/20 16:42:34;;;;;;;;;;;;;;;;;;5007228;27;108020;-64